createdAt,value
2019-04-28T00:04:31.585Z,5.40
2019-04-28T00:10:01.241Z,5.40
2019-04-28T00:15:30.992Z,5.00
2019-04-28T00:21:01.969Z,4.80
2019-04-28T00:26:45.105Z,4.60
2019-04-28T00:32:14.479Z,4.50
2019-04-28T00:37:43.828Z,4.60
2019-04-28T00:43:13.235Z,4.50
2019-04-28T00:48:42.689Z,4.50
2019-04-28T00:54:12.560Z,4.50
2019-04-28T00:59:54.123Z,4.50
2019-04-28T01:05:13.597Z,4.50
2019-04-28T01:10:42.997Z,4.40
2019-04-28T01:16:23.211Z,4.50
2019-04-28T01:22:10.261Z,4.50
2019-04-28T01:27:41.559Z,4.60
2019-04-28T01:33:30.873Z,4.70
2019-04-28T01:39:00.214Z,4.70
2019-04-28T01:44:29.802Z,4.70
2019-04-28T01:50:01.758Z,4.80
2019-04-28T01:55:30.230Z,4.80
2019-04-28T02:00:59.761Z,4.90
2019-04-28T02:06:29.977Z,4.80
2019-04-28T02:12:00.828Z,4.80
2019-04-28T02:17:30.674Z,4.90
2019-04-28T02:23:01.747Z,4.90
2019-04-28T02:28:31.099Z,4.90
2019-04-28T02:34:00.784Z,4.80
2019-04-28T02:39:31.267Z,4.80
2019-04-28T02:45:01.407Z,4.80
2019-04-28T02:50:35.156Z,4.80
2019-04-28T02:56:04.626Z,4.70
2019-04-28T03:01:33.936Z,4.70
2019-04-28T03:07:03.365Z,4.70
2019-04-28T03:12:32.825Z,4.70
2019-04-28T03:18:02.426Z,4.70
2019-04-28T03:23:31.829Z,4.60
2019-04-28T03:29:02.880Z,4.60
2019-04-28T03:34:53.762Z,4.60
2019-04-28T03:40:21.181Z,4.50
2019-04-28T03:46:02.804Z,4.40
2019-04-28T03:51:30.874Z,4.40
2019-04-28T03:57:01.255Z,4.30
2019-04-28T04:02:31.380Z,4.30
2019-04-28T04:08:01.126Z,4.20
2019-04-28T04:13:33.307Z,4.20
2019-04-28T04:19:07.095Z,4.10
2019-04-28T04:24:36.437Z,4.10
2019-04-28T04:30:06.997Z,4.10
2019-04-28T04:35:36.421Z,4.10
2019-04-28T04:41:06.174Z,4.10
2019-04-28T04:46:35.556Z,4.20
2019-04-28T04:52:04.980Z,4.20
2019-04-28T04:57:34.297Z,4.20
2019-04-28T05:03:05.603Z,4.30
2019-04-28T05:08:34.893Z,4.30
2019-04-28T05:14:07.356Z,4.40
2019-04-28T05:19:36.698Z,4.50
2019-04-28T05:25:17.531Z,4.60
2019-04-28T05:30:46.935Z,4.70
2019-04-28T05:36:16.395Z,4.70
2019-04-28T05:41:45.777Z,4.90
2019-04-28T05:47:15.103Z,5.00
2019-04-28T05:53:00.852Z,5.10
2019-04-28T05:58:31.816Z,5.50
2019-04-28T06:04:01.183Z,5.70
2019-04-28T06:09:35.805Z,5.90
2019-04-28T06:15:07.307Z,6.10
2019-04-28T06:20:36.727Z,6.30
2019-04-28T06:26:07.058Z,6.40
2019-04-28T06:31:36.768Z,6.20
2019-04-28T06:37:06.186Z,6.40
2019-04-28T06:42:35.760Z,6.70
2019-04-28T06:48:05.231Z,6.90
2019-04-28T06:53:34.729Z,6.90
2019-04-28T06:59:04.168Z,6.80
2019-04-28T07:04:33.558Z,6.90
2019-04-28T07:10:03.027Z,7.20
2019-04-28T07:15:38.338Z,7.40
2019-04-28T07:21:09.425Z,7.50
2019-04-28T07:26:38.814Z,7.70
2019-04-28T07:32:08.335Z,7.60
2019-04-28T07:37:37.900Z,7.60
2019-04-28T07:43:07.378Z,7.70
2019-04-28T07:48:36.710Z,8.10
2019-04-28T07:54:13.869Z,8.20
2019-04-28T08:00:02.700Z,8.50
2019-04-28T08:05:32.162Z,9.00
2019-04-28T08:11:01.543Z,9.50
2019-04-28T08:16:31.148Z,9.70
2019-04-28T08:22:00.633Z,10.00
2019-04-28T08:27:29.989Z,10.00
2019-04-28T08:33:15.920Z,9.80
2019-04-28T08:38:45.405Z,9.90
2019-04-28T08:44:14.805Z,9.90
2019-04-28T08:49:44.353Z,9.80
2019-04-28T08:55:14.035Z,9.80
2019-04-28T09:00:43.478Z,9.80
2019-04-28T09:06:12.870Z,9.70
2019-04-28T09:11:42.376Z,9.60
2019-04-28T09:17:12.264Z,9.70
2019-04-28T09:22:42.145Z,9.70
2019-04-28T09:28:12.072Z,9.60
2019-04-28T09:33:41.945Z,9.50
2019-04-28T09:39:13.235Z,9.70
2019-04-28T09:44:42.672Z,10.10
2019-04-28T09:50:12.284Z,10.40
2019-04-28T09:55:41.783Z,10.40
2019-04-28T10:01:11.315Z,10.50
2019-04-28T10:06:40.846Z,10.70
2019-04-28T10:12:10.379Z,10.90
2019-04-28T10:17:39.799Z,11.20
2019-04-28T10:23:09.246Z,11.50
2019-04-28T10:28:38.749Z,11.10
2019-04-28T10:34:08.442Z,10.80
2019-04-28T10:39:42.461Z,10.70
2019-04-28T10:45:13.664Z,10.70
2019-04-28T10:50:43.264Z,11.20
2019-04-28T10:56:12.754Z,11.20
2019-04-28T11:01:42.170Z,11.10
2019-04-28T11:07:13.410Z,11.30
2019-04-28T11:12:42.830Z,11.60
2019-04-28T11:18:13.896Z,11.70
2019-04-28T11:23:43.322Z,11.60
2019-04-28T11:29:12.933Z,11.20
2019-04-28T11:34:46.944Z,10.80
2019-04-28T11:40:16.845Z,10.70
2019-04-28T11:45:46.500Z,10.50
2019-04-28T11:51:16.092Z,10.50
2019-04-28T11:56:45.928Z,10.60
2019-04-28T12:02:15.626Z,10.40
2019-04-28T12:07:45.221Z,10.30
2019-04-28T12:13:25.428Z,10.20
2019-04-28T12:19:05.831Z,10.10
2019-04-28T12:24:35.202Z,10.10
2019-04-28T12:30:05.344Z,10.20
2019-04-28T12:35:47.211Z,10.20
2019-04-28T12:41:07.177Z,10.20
2019-04-28T12:46:36.574Z,10.20
2019-04-28T12:52:07.940Z,10.30
2019-04-28T12:57:37.612Z,10.40
2019-04-28T13:03:14.494Z,10.30
2019-04-28T13:08:49.881Z,10.20
2019-04-28T13:14:19.234Z,10.10
2019-04-28T13:19:48.724Z,10.10
2019-04-28T13:25:22.937Z,10.10
2019-04-28T13:30:52.544Z,10.10
2019-04-28T13:36:22.524Z,10.10
2019-04-28T13:41:52.223Z,10.10
2019-04-28T13:47:22.473Z,10.30
2019-04-28T13:52:51.984Z,10.40
2019-04-28T13:58:23.106Z,10.50
2019-04-28T14:03:56.892Z,11.30
2019-04-28T14:09:28.318Z,11.40
2019-04-28T14:15:04.531Z,11.00
2019-04-28T14:20:34.991Z,11.10
2019-04-28T14:26:06.720Z,11.60
2019-04-28T14:31:37.470Z,11.90
2019-04-28T14:37:07.054Z,12.60
2019-04-28T14:42:38.163Z,12.60
2019-04-28T14:48:07.624Z,13.20
2019-04-28T14:53:37.135Z,13.00
2019-04-28T14:59:06.762Z,12.50
2019-04-28T15:04:53.946Z,12.00
2019-04-28T15:10:28.003Z,11.60
2019-04-28T15:15:58.503Z,11.20
2019-04-28T15:21:28.262Z,10.80
2019-04-28T15:26:57.659Z,10.60
2019-04-28T15:32:27.177Z,10.40
2019-04-28T15:37:56.841Z,10.30
2019-04-28T15:43:26.566Z,10.30
2019-04-28T15:48:56.101Z,10.10
2019-04-28T15:54:25.508Z,10.00
2019-04-28T15:59:57.127Z,10.00
2019-04-28T16:05:26.759Z,10.00
2019-04-28T16:10:57.243Z,9.90
2019-04-28T16:16:26.680Z,9.90
2019-04-28T16:21:56.457Z,9.90
2019-04-28T16:27:26.259Z,9.80
2019-04-28T16:32:56.511Z,9.90
2019-04-28T16:38:26.109Z,9.90
2019-04-28T16:43:59.583Z,9.80
2019-04-28T16:49:29.186Z,9.80
2019-04-28T16:55:15.289Z,9.70
2019-04-28T17:00:46.463Z,9.60
2019-04-28T17:06:15.998Z,9.50
2019-04-28T17:11:45.597Z,9.40
2019-04-28T17:17:20.932Z,9.40
2019-04-28T17:22:50.460Z,9.40
2019-04-28T17:28:21.013Z,9.30
2019-04-28T17:33:50.903Z,9.30
2019-04-28T17:39:22.267Z,9.20
2019-04-28T17:44:52.017Z,9.00
2019-04-28T17:50:23.147Z,8.80
2019-04-28T17:55:52.616Z,8.50
2019-04-28T18:01:23.830Z,8.20
2019-04-28T18:06:57.682Z,8.00
2019-04-28T18:12:27.285Z,7.80
2019-04-28T18:18:07.608Z,7.60
2019-04-28T18:23:37.037Z,7.40
2019-04-28T18:29:06.467Z,7.30
2019-04-28T18:34:37.597Z,7.20
2019-04-28T18:40:22.104Z,7.10
2019-04-28T18:45:52.410Z,7.00
2019-04-28T18:51:24.954Z,6.90
2019-04-28T18:56:54.686Z,6.90
2019-04-28T19:02:37.460Z,6.80
2019-04-28T19:08:20.548Z,6.70
2019-04-28T19:13:54.389Z,6.60
2019-04-28T19:19:26.475Z,6.60
2019-04-28T19:24:56.088Z,6.50
2019-04-28T19:30:25.680Z,6.50
2019-04-28T19:35:55.165Z,6.40
2019-04-28T19:41:24.689Z,6.30
2019-04-28T19:46:57.221Z,6.30
2019-04-28T19:52:26.612Z,6.30
2019-04-28T19:57:57.796Z,6.30
2019-04-28T20:03:27.522Z,6.30
2019-04-28T20:08:57.146Z,6.30
2019-04-28T20:14:26.992Z,6.20
2019-04-28T20:19:56.402Z,6.10
2019-04-28T20:25:27.040Z,6.10
2019-04-28T20:30:57.871Z,6.00
2019-04-28T20:36:33.086Z,6.00
2019-04-28T20:42:16.373Z,5.90
2019-04-28T20:47:45.999Z,5.80
2019-04-28T20:53:15.332Z,5.80
2019-04-28T20:58:44.653Z,5.70
2019-04-28T21:04:14.041Z,5.70
2019-04-28T21:09:43.494Z,5.70
2019-04-28T21:15:13.233Z,5.70
2019-04-28T21:20:42.671Z,5.60
2019-04-28T21:26:12.092Z,5.60
2019-04-28T21:31:41.607Z,5.50
2019-04-28T21:37:11.324Z,5.50
2019-04-28T21:42:48.280Z,5.50
2019-04-28T21:48:35.372Z,5.50
2019-04-28T21:54:05.028Z,5.50
2019-04-28T21:59:34.451Z,5.50
2019-04-28T22:05:05.628Z,5.50
2019-04-28T22:10:35.237Z,5.40
2019-04-28T22:16:04.691Z,5.40
2019-04-28T22:21:34.164Z,5.40
2019-04-28T22:27:03.544Z,5.40
2019-04-28T22:32:32.868Z,5.40
2019-04-28T22:38:02.186Z,5.40
2019-04-28T22:43:31.720Z,5.40
2019-04-28T22:49:05.401Z,5.40
2019-04-28T22:54:39.272Z,5.40
2019-04-28T23:00:31.704Z,5.40
2019-04-28T23:06:01.129Z,5.50
2019-04-28T23:11:30.548Z,5.50
2019-04-28T23:16:59.986Z,5.60
2019-04-28T23:22:31.058Z,5.60
2019-04-28T23:28:00.420Z,5.50
2019-04-28T23:33:29.747Z,5.50
2019-04-28T23:38:59.056Z,5.50
2019-04-28T23:44:28.521Z,5.40
2019-04-28T23:49:57.881Z,5.40
2019-04-28T23:55:29.201Z,5.40
